Time;durP1;ratioP1;P1;durP2;ratioP2;P2;SDS_P1;SDS_P2;PMS_P1;PMS_P2;Temp;Humidity;BMP_temperature;BMP_pressure;BME280_temperature;BME280_humidity;BME280_pressure;Samples;Min_cycle;Max_cycle;Signal;HPM_P1;HPM_P2
2023/07/05 00:01:19;;;;;;;8.77;4.55;;;;;;;15.31;70.72;100656.28;5023572;28;20526;-58
2023/07/05 00:03:46;;;;;;;10.20;4.28;;;;;;;15.28;71.21;100664.50;5028233;28;20132;-60
2023/07/05 00:06:14;;;;;;;7.30;4.38;;;;;;;15.26;71.28;100654.00;5022371;28;20457;-56
2023/07/05 00:08:41;;;;;;;7.20;4.55;;;;;;;15.24;71.61;100652.44;5018938;28;20156;-62
2023/07/05 00:11:10;;;;;;;7.95;4.22;;;;;;;15.22;71.55;100646.41;5022347;28;20057;-59
2023/07/05 00:13:38;;;;;;;8.55;4.10;;;;;;;15.18;71.89;100648.47;5029555;28;20145;-59
2023/07/05 00:16:08;;;;;;;10.43;4.55;;;;;;;15.14;72.03;100637.25;5026392;28;20092;-60
2023/07/05 00:18:36;;;;;;;12.90;5.00;;;;;;;15.13;72.31;100638.22;5022396;28;20136;-59
2023/07/05 00:23:58;;;;;;;10.52;4.22;;;;;;;15.08;72.23;100640.38;5021022;28;20224;-61
2023/07/05 00:26:47;;;;;;;9.20;4.60;;;;;;;15.04;72.22;100633.63;5012106;28;20465;-60
2023/07/05 00:29:15;;;;;;;12.23;4.40;;;;;;;15.02;72.37;100632.06;5019524;28;20089;-60
2023/07/05 00:31:42;;;;;;;16.90;5.05;;;;;;;15.01;72.20;100635.69;5019524;28;20099;-59
2023/07/05 00:34:10;;;;;;;9.48;4.95;;;;;;;15.02;72.74;100626.75;5020416;28;20061;-58
2023/07/05 00:36:37;;;;;;;8.45;4.03;;;;;;;14.99;72.67;100627.81;5025019;28;20081;-59
2023/07/05 00:39:04;;;;;;;8.18;4.10;;;;;;;14.99;72.73;100617.22;5023715;28;20085;-59
2023/07/05 00:41:31;;;;;;;12.98;4.18;;;;;;;14.99;72.83;100626.97;5018659;28;20160;-58
2023/07/05 00:43:59;;;;;;;13.77;4.28;;;;;;;14.97;72.81;100623.63;5016794;28;20141;-58
2023/07/05 00:46:29;;;;;;;7.05;4.32;;;;;;;14.96;72.67;100622.78;5011744;28;20051;-60
2023/07/05 00:52:06;;;;;;;14.20;5.40;;;;;;;14.95;72.69;100605.19;5024541;28;20057;-63
2023/07/05 00:54:36;;;;;;;14.23;4.22;;;;;;;14.96;72.72;100606.03;5025671;28;20084;-60
2023/07/05 00:57:26;;;;;;;12.85;4.20;;;;;;;14.94;72.73;100603.47;5002516;28;20677;-59
2023/07/05 01:00:03;;;;;;;8.77;4.70;;;;;;;14.93;72.73;100613.25;4996432;28;20577;-58
2023/07/05 01:02:30;;;;;;;11.82;4.90;;;;;;;14.93;72.80;100612.41;5021263;28;20757;-62
2023/07/05 01:04:59;;;;;;;7.55;4.80;;;;;;;14.95;73.27;100594.59;5019739;28;20550;-57
2023/07/05 01:07:27;;;;;;;10.32;4.40;;;;;;;14.98;73.26;100593.50;5018852;28;20132;-59
2023/07/05 01:09:55;;;;;;;13.48;4.53;;;;;;;14.99;73.06;100593.34;5023587;28;20494;-58
2023/07/05 01:12:41;;;;;;;11.18;4.18;;;;;;;14.99;73.09;100598.66;5021515;28;20176;-56
2023/07/05 01:15:16;;;;;;;9.77;4.78;;;;;;;14.97;72.91;100589.16;5002746;28;20454;-61
2023/07/05 01:17:54;;;;;;;11.25;4.38;;;;;;;14.94;72.97;100588.41;5004393;28;20060;-60
2023/07/05 01:20:59;;;;;;;9.25;4.82;;;;;;;14.96;72.79;100577.72;4997667;28;20045;-57
2023/07/05 01:23:26;;;;;;;10.57;4.10;;;;;;;14.96;72.86;100569.75;5021030;28;20108;-59
2023/07/05 01:26:06;;;;;;;8.55;4.57;;;;;;;14.97;72.87;100575.91;5029225;28;20402;-59
2023/07/05 01:28:58;;;;;;;8.32;4.53;;;;;;;14.98;73.04;100564.34;5026467;28;20073;-59
2023/07/05 01:31:44;;;;;;;13.68;4.47;;;;;;;15.00;72.97;100568.56;5025458;28;20041;-59
2023/07/05 01:34:29;;;;;;;7.57;4.10;;;;;;;15.00;72.84;100565.91;5021029;28;20168;-61
2023/07/05 01:36:57;;;;;;;10.45;4.75;;;;;;;15.01;72.98;100562.28;5021691;28;20172;-58
2023/07/05 01:39:24;;;;;;;8.98;4.32;;;;;;;15.02;72.78;100553.38;5021492;28;20100;-58
2023/07/05 01:41:51;;;;;;;12.73;5.63;;;;;;;15.03;72.82;100549.75;5026100;28;20053;-60
2023/07/05 01:44:19;;;;;;;9.73;4.60;;;;;;;15.03;72.73;100539.13;5027051;28;20152;-56
2023/07/05 01:46:56;;;;;;;9.75;4.60;;;;;;;15.03;72.72;100544.44;5008395;28;20523;-61
2023/07/05 01:49:29;;;;;;;6.82;3.75;;;;;;;15.02;72.69;100542.75;5023427;28;20516;-61
2023/07/05 01:52:21;;;;;;;6.68;4.32;;;;;;;15.01;72.67;100541.09;5028821;28;20517;-60
2023/07/05 01:55:08;;;;;;;10.43;4.40;;;;;;;15.01;72.79;100534.94;4972684;28;20084;-59
2023/07/05 01:58:03;;;;;;;10.25;5.18;;;;;;;15.01;72.92;100538.44;5026256;28;20103;-59
2023/07/05 02:00:30;;;;;;;6.60;4.22;;;;;;;15.03;72.63;100539.13;5003083;28;20144;-62
2023/07/05 02:03:04;;;;;;;8.10;4.03;;;;;;;15.05;72.36;100526.63;5005400;28;20140;-59
2023/07/05 02:05:32;;;;;;;12.85;4.28;;;;;;;15.07;71.96;100529.97;4996360;28;20448;-60
2023/07/05 02:07:59;;;;;;;13.13;4.82;;;;;;;15.09;71.84;100528.06;5003045;28;20144;-60
2023/07/05 02:10:28;;;;;;;10.45;4.40;;;;;;;15.12;71.25;100522.50;5018303;28;20060;-58
2023/07/05 02:12:56;;;;;;;10.90;4.10;;;;;;;15.11;71.04;100520.81;5001860;28;20085;-58
2023/07/05 02:15:24;;;;;;;6.68;3.75;;;;;;;15.12;71.02;100516.34;5021375;28;20060;-57
2023/07/05 02:17:51;;;;;;;12.00;4.70;;;;;;;15.12;70.74;100522.50;5021233;28;20066;-57
2023/07/05 02:20:19;;;;;;;9.00;4.75;;;;;;;15.12;70.82;100517.19;5019040;28;20527;-57
2023/07/05 02:22:46;;;;;;;7.45;4.05;;;;;;;15.12;70.68;100513.72;5025176;28;22281;-59
2023/07/05 02:25:13;;;;;;;13.20;4.40;;;;;;;15.12;70.58;100511.06;5004711;28;20045;-60
2023/07/05 02:27:40;;;;;;;8.75;3.67;;;;;;;15.10;70.52;100511.19;5006678;28;20061;-54
2023/07/05 02:30:12;;;;;;;12.52;5.13;;;;;;;15.10;70.87;100507.69;5001167;28;20479;-60
2023/07/05 02:32:40;;;;;;;9.60;4.55;;;;;;;15.09;70.69;100504.19;5003943;28;20136;-58
2023/07/05 02:35:10;;;;;;;10.77;4.30;;;;;;;15.12;70.92;100497.78;5019892;28;20193;-60
2023/07/05 02:37:38;;;;;;;10.13;4.75;;;;;;;15.12;71.32;100492.50;5025606;28;20113;-59
2023/07/05 02:40:06;;;;;;;7.47;4.78;;;;;;;15.11;71.17;100477.56;5018280;28;20139;-59
2023/07/05 02:42:33;;;;;;;7.78;3.88;;;;;;;15.08;71.53;100481.28;5025402;28;20138;-60
2023/07/05 02:45:00;;;;;;;7.15;4.80;;;;;;;15.07;71.31;100476.97;5011362;28;20694;-58
2023/07/05 02:47:28;;;;;;;10.10;4.75;;;;;;;15.03;71.42;100467.56;4989498;28;20046;-60
2023/07/05 02:49:55;;;;;;;7.50;4.28;;;;;;;15.00;71.72;100469.63;5016460;28;20462;-57
2023/07/05 02:52:22;;;;;;;14.10;4.68;;;;;;;14.97;71.78;100454.81;5022816;28;20390;-60
2023/07/05 02:54:50;;;;;;;10.98;4.80;;;;;;;14.93;71.79;100456.00;5019954;28;20057;-59
2023/07/05 02:57:17;;;;;;;9.73;4.28;;;;;;;14.92;72.05;100452.53;5022348;28;20608;-59
2023/07/05 02:59:44;;;;;;;12.27;4.13;;;;;;;14.92;72.03;100447.22;5025750;28;20053;-60
2023/07/05 03:02:11;;;;;;;8.32;4.68;;;;;;;14.91;71.85;100444.69;5017865;28;20141;-60
2023/07/05 03:04:41;;;;;;;7.82;4.47;;;;;;;14.90;72.13;100432.38;5019226;28;20136;-61
2023/07/05 03:07:08;;;;;;;11.38;4.18;;;;;;;14.90;71.98;100438.56;5013341;28;20072;-60
2023/07/05 03:09:36;;;;;;;11.75;5.05;;;;;;;14.91;71.96;100429.63;5019995;28;20587;-60
2023/07/05 03:12:03;;;;;;;10.25;4.82;;;;;;;14.91;71.82;100424.34;5025121;28;20053;-60
2023/07/05 03:14:30;;;;;;;8.07;3.92;;;;;;;14.92;71.89;100430.47;5024625;28;21126;-64
2023/07/05 03:16:58;;;;;;;14.30;4.80;;;;;;;14.93;72.01;100433.00;5009959;28;20527;-61
2023/07/05 03:19:25;;;;;;;12.07;4.75;;;;;;;14.94;71.65;100420.59;5020424;28;20053;-61
2023/07/05 03:21:52;;;;;;;8.20;4.30;;;;;;;14.93;71.77;100419.75;5017901;28;20759;-61
2023/07/05 03:24:20;;;;;;;10.43;4.90;;;;;;;14.93;71.64;100424.22;5020955;28;20085;-60
2023/07/05 03:26:52;;;;;;;11.70;4.15;;;;;;;14.95;71.98;100424.94;4998268;28;20060;-60
2023/07/05 03:29:19;;;;;;;14.07;4.90;;;;;;;14.96;71.71;100423.97;5005155;28;20065;-60
2023/07/05 03:31:46;;;;;;;8.27;4.82;;;;;;;14.98;71.26;100423.84;5020709;28;20057;-61
2023/07/05 03:34:15;;;;;;;7.72;4.45;;;;;;;15.01;71.21;100432.38;5016895;28;20095;-59
2023/07/05 03:36:43;;;;;;;9.00;4.32;;;;;;;15.04;71.15;100418.91;5022407;28;20085;-60
2023/07/05 03:39:10;;;;;;;13.15;4.10;;;;;;;15.08;70.97;100427.41;5020591;28;20095;-61
2023/07/05 03:41:37;;;;;;;6.68;4.22;;;;;;;15.11;70.69;100424.53;5024849;28;20045;-62
2023/07/05 03:44:05;;;;;;;8.95;4.53;;;;;;;15.12;70.59;100412.94;5019346;28;20129;-59
2023/07/05 03:46:32;;;;;;;8.30;4.72;;;;;;;15.15;70.34;100413.56;5023767;28;20390;-59
2023/07/05 03:49:00;;;;;;;8.13;4.68;;;;;;;15.17;70.32;100416.94;5014337;28;20162;-60
2023/07/05 03:51:27;;;;;;;9.05;4.65;;;;;;;15.23;70.18;100420.06;5016860;28;20160;-60
2023/07/05 03:53:56;;;;;;;7.82;4.20;;;;;;;15.27;69.98;100410.88;5018111;28;20056;-60
2023/07/05 03:56:24;;;;;;;10.07;4.32;;;;;;;15.32;69.74;100412.19;5020617;28;20125;-60
2023/07/05 03:58:51;;;;;;;7.03;4.13;;;;;;;15.37;69.46;100410.00;5004303;28;20108;-60
2023/07/05 04:01:26;;;;;;;11.00;4.35;;;;;;;15.43;69.23;100416.59;5021180;28;20470;-59
2023/07/05 04:03:58;;;;;;;11.63;4.55;;;;;;;15.48;68.91;100411.75;5017896;28;20473;-59
2023/07/05 04:06:29;;;;;;;10.07;3.75;;;;;;;15.54;68.80;100416.56;5022545;28;20073;-60
2023/07/05 04:08:56;;;;;;;10.82;5.05;;;;;;;15.59;68.26;100409.06;5004384;28;20085;-61
2023/07/05 04:11:24;;;;;;;12.38;4.00;;;;;;;15.65;68.21;100402.41;5022612;28;20130;-61
2023/07/05 04:13:53;;;;;;;11.25;4.05;;;;;;;15.70;67.86;100387.78;5025707;28;20126;-60
2023/07/05 04:16:24;;;;;;;10.60;4.32;;;;;;;15.75;67.66;100398.00;5026842;28;20056;-61
2023/07/05 04:18:53;;;;;;;8.07;3.92;;;;;;;15.82;67.20;100387.75;5021891;28;20060;-61
2023/07/05 04:21:21;;;;;;;8.23;4.10;;;;;;;15.86;67.07;100395.31;5026147;28;20045;-58
2023/07/05 04:23:48;;;;;;;13.05;4.60;;;;;;;15.91;66.68;100389.63;5028444;28;20137;-61
2023/07/05 04:26:20;;;;;;;13.35;4.78;;;;;;;15.96;66.67;100376.78;5023812;28;20103;-60
2023/07/05 04:28:48;;;;;;;6.68;4.00;;;;;;;16.00;66.06;100383.50;5026744;28;20073;-60
2023/07/05 04:31:18;;;;;;;10.85;4.65;;;;;;;16.06;65.73;100376.84;5024404;28;20115;-61
2023/07/05 04:33:46;;;;;;;8.65;4.70;;;;;;;16.08;65.55;100373.09;5023271;28;20399;-60
2023/07/05 04:36:13;;;;;;;10.40;4.05;;;;;;;16.17;65.30;100364.31;5025491;28;20083;-61
2023/07/05 04:38:56;;;;;;;7.00;4.55;;;;;;;16.26;64.90;100359.19;5019657;28;20104;-60
2023/07/05 04:41:23;;;;;;;11.80;4.28;;;;;;;16.32;64.27;100363.97;5020518;28;20132;-61
2023/07/05 04:43:51;;;;;;;7.25;3.90;;;;;;;16.37;64.20;100367.06;5004582;28;20405;-62
2023/07/05 04:46:19;;;;;;;10.15;4.32;;;;;;;16.43;63.94;100353.22;5011646;28;20184;-61
2023/07/05 04:48:46;;;;;;;9.18;4.03;;;;;;;16.53;63.33;100350.63;5020934;28;20135;-59
2023/07/05 04:51:14;;;;;;;12.27;4.15;;;;;;;16.59;63.39;100358.03;5015167;28;20069;-62
2023/07/05 04:53:41;;;;;;;8.95;4.40;;;;;;;16.65;63.08;100347.69;5017132;28;20600;-58
2023/07/05 04:56:13;;;;;;;10.50;4.57;;;;;;;16.74;62.84;100353.22;5016571;28;20049;-61
2023/07/05 04:58:40;;;;;;;6.03;3.72;;;;;;;16.82;62.77;100356.88;5015030;28;20827;-62
2023/07/05 05:01:08;;;;;;;9.70;4.20;;;;;;;16.85;62.09;100350.44;5018866;28;20057;-60
2023/07/05 05:03:36;;;;;;;15.25;5.00;;;;;;;16.86;62.23;100350.31;5020440;28;20064;-60
2023/07/05 05:06:04;;;;;;;7.00;4.20;;;;;;;16.91;62.48;100355.19;5021663;28;20058;-60
2023/07/05 05:08:31;;;;;;;7.18;3.92;;;;;;;16.95;62.60;100345.97;4999310;28;20049;-61
2023/07/05 05:11:00;;;;;;;7.68;4.72;;;;;;;17.01;62.04;100333.94;5019501;28;20053;-60
2023/07/05 05:13:29;;;;;;;6.13;3.45;;;;;;;17.08;62.06;100324.44;5022922;28;20123;-60
2023/07/05 05:15:57;;;;;;;16.60;5.07;;;;;;;17.16;61.75;100321.94;5022565;28;20517;-62
2023/07/05 05:18:27;;;;;;;8.52;4.88;;;;;;;17.20;61.43;100328.63;5026967;28;20053;-61
2023/07/05 05:20:55;;;;;;;7.25;4.13;;;;;;;17.26;61.59;100333.41;5018372;28;20095;-61
2023/07/05 05:23:22;;;;;;;9.43;4.35;;;;;;;17.35;61.21;100326.41;5023063;28;20057;-61
2023/07/05 05:25:50;;;;;;;10.43;4.25;;;;;;;17.40;61.05;100318.81;5014643;28;20053;-61
2023/07/05 05:28:18;;;;;;;9.07;4.45;;;;;;;17.50;60.58;100313.47;5011637;28;20137;-61
2023/07/05 05:30:45;;;;;;;11.75;4.80;;;;;;;17.60;60.33;100316.97;5018141;28;20470;-62
2023/07/05 05:33:14;;;;;;;13.13;4.63;;;;;;;17.70;59.96;100304.50;5023480;28;20146;-61
2023/07/05 05:35:50;;;;;;;8.02;3.80;;;;;;;17.78;59.92;100299.28;5022921;28;20151;-60
2023/07/05 05:38:21;;;;;;;8.55;4.22;;;;;;;17.86;59.50;100296.75;5023015;28;20085;-62
2023/07/05 05:40:50;;;;;;;6.72;4.25;;;;;;;18.01;59.33;100301.59;5021453;28;21123;-60
2023/07/05 05:43:19;;;;;;;9.43;4.35;;;;;;;18.18;58.67;100298.16;5022262;28;20096;-61
2023/07/05 05:45:46;;;;;;;9.13;4.50;;;;;;;18.30;58.47;100288.16;5016823;28;20057;-60
2023/07/05 05:48:14;;;;;;;10.45;4.55;;;;;;;18.45;58.15;100292.00;5027740;28;20462;-62
2023/07/05 05:50:41;;;;;;;9.18;4.43;;;;;;;18.59;57.78;100283.47;5017698;28;20144;-61
2023/07/05 05:53:12;;;;;;;8.43;4.70;;;;;;;18.67;56.98;100266.75;4995443;28;20516;-61
2023/07/05 05:55:40;;;;;;;13.45;4.63;;;;;;;18.68;57.04;100271.06;5030774;28;20721;-61
2023/07/05 05:58:08;;;;;;;9.13;4.60;;;;;;;18.70;57.26;100269.97;4994736;28;20073;-61
2023/07/05 06:00:36;;;;;;;8.90;4.65;;;;;;;18.72;57.31;100267.97;5018718;28;20108;-61
2023/07/05 06:03:03;;;;;;;10.35;4.07;;;;;;;18.65;57.24;100264.22;5004717;28;20092;-62
2023/07/05 06:05:32;;;;;;;10.15;5.35;;;;;;;18.56;57.49;100253.66;5014056;28;20068;-60
2023/07/05 06:08:00;;;;;;;9.43;5.25;;;;;;;18.51;57.58;100256.75;5009981;28;20156;-61
2023/07/05 06:10:27;;;;;;;8.77;5.05;;;;;;;18.50;58.00;100252.41;5012872;28;20053;-60
2023/07/05 06:12:56;;;;;;;9.73;5.50;;;;;;;18.48;58.15;100246.38;5014983;28;20102;-60
2023/07/05 06:15:23;;;;;;;10.65;5.32;;;;;;;18.51;58.53;100239.91;5021389;28;20052;-61
2023/07/05 06:17:50;;;;;;;7.35;4.68;;;;;;;18.56;58.68;100226.97;5022731;28;20391;-61
2023/07/05 06:20:17;;;;;;;14.35;5.18;;;;;;;18.63;58.90;100222.69;5018087;28;20132;-61
2023/07/05 06:22:45;;;;;;;9.18;4.82;;;;;;;18.64;58.92;100219.03;5019971;28;20049;-61
2023/07/05 06:25:12;;;;;;;13.55;5.63;;;;;;;18.63;59.09;100223.53;5020480;28;20593;-58
2023/07/05 06:27:40;;;;;;;11.07;5.05;;;;;;;18.67;58.92;100219.59;5019688;28;20813;-60
2023/07/05 06:30:07;;;;;;;11.13;5.57;;;;;;;18.71;58.50;100215.66;5019861;28;20155;-61
2023/07/05 06:32:35;;;;;;;10.43;5.85;;;;;;;18.74;58.19;100203.84;5025205;28;20065;-60
2023/07/05 06:35:03;;;;;;;12.07;5.38;;;;;;;18.79;57.94;100203.41;5018941;28;20072;-60
2023/07/05 06:37:31;;;;;;;10.25;5.22;;;;;;;18.88;57.99;100197.13;5019644;28;20060;-61
2023/07/05 06:39:58;;;;;;;13.13;6.20;;;;;;;19.01;57.61;100199.41;5020644;28;20098;-61
2023/07/05 06:42:25;;;;;;;11.70;5.30;;;;;;;19.15;57.05;100190.84;5023144;28;20112;-60
2023/07/05 06:44:56;;;;;;;8.05;4.90;;;;;;;19.30;56.58;100180.41;5018254;28;20148;-61
2023/07/05 06:47:23;;;;;;;11.85;5.80;;;;;;;19.47;56.34;100180.34;5023219;28;20054;-59
2023/07/05 06:49:50;;;;;;;11.98;5.13;;;;;;;19.66;55.97;100176.63;5020290;28;20141;-62
2023/07/05 06:52:18;;;;;;;13.25;5.20;;;;;;;19.83;55.40;100176.72;5017826;28;20053;-59
2023/07/05 06:54:45;;;;;;;10.50;5.00;;;;;;;20.02;55.02;100165.75;5021678;28;20049;-59
2023/07/05 06:57:12;;;;;;;11.43;5.93;;;;;;;20.18;54.50;100162.31;5014476;28;20529;-60
2023/07/05 06:59:43;;;;;;;10.73;6.53;;;;;;;20.40;53.87;100155.50;5023429;28;20658;-61
2023/07/05 07:02:11;;;;;;;10.73;6.22;;;;;;;20.65;53.11;100157.19;5024584;28;20045;-61
2023/07/05 07:04:39;;;;;;;11.00;6.43;;;;;;;20.91;52.60;100166.91;5020536;28;20092;-59
2023/07/05 09:28:13;;;;;;;15.27;10.25;;;;;;;22.61;49.37;100182.53;5122748;27;20120;-57
2023/07/05 09:30:40;;;;;;;13.35;9.57;;;;;;;22.59;49.83;100198.78;5097064;28;20556;-57
2023/07/05 09:33:15;;;;;;;10.80;9.02;;;;;;;22.49;49.03;100187.47;5027927;28;20116;-56
2023/07/05 09:35:44;;;;;;;12.88;9.02;;;;;;;22.31;49.47;100185.06;5024029;28;20057;-55
2023/07/05 09:38:25;;;;;;;15.55;9.15;;;;;;;22.33;50.02;100191.06;4874957;28;20066;-58
2023/07/05 09:41:04;;;;;;;18.20;9.27;;;;;;;22.21;49.74;100179.94;4686900;30;20780;-61
2023/07/05 09:43:33;;;;;;;12.63;9.05;;;;;;;22.30;50.02;100194.13;4505091;31;20159;-58
2023/07/05 09:48:44;;;;;;;14.32;10.13;;;;;;;22.32;50.23;100177.84;5147468;27;20130;-54
2023/07/05 09:51:11;;;;;;;13.32;8.80;;;;;;;22.33;50.21;100191.06;5086961;27;20075;-60
2023/07/05 09:53:53;;;;;;;15.57;9.80;;;;;;;22.36;50.90;100180.00;5113142;27;20086;-59
2023/07/05 09:56:28;;;;;;;13.00;9.50;;;;;;;22.46;50.87;100190.50;5005779;28;20046;-57
2023/07/05 09:59:12;;;;;;;10.35;7.53;;;;;;;22.52;50.64;100181.75;4994784;28;20150;-53
2023/07/05 10:01:41;;;;;;;11.52;7.88;;;;;;;22.67;50.47;100182.63;4840314;29;20063;-57
2023/07/05 10:04:08;;;;;;;12.27;8.65;;;;;;;22.73;50.41;100194.47;4667770;30;20093;-59
2023/07/05 10:06:38;;;;;;;9.00;7.32;;;;;;;22.79;50.23;100177.69;4580908;30;20071;-59
2023/07/05 10:09:32;;;;;;;14.13;7.80;;;;;;;22.97;50.38;100174.72;5178005;27;20133;-59
2023/07/05 10:12:09;;;;;;;13.77;8.23;;;;;;;23.02;50.22;100177.69;5157946;27;20043;-60
2023/07/05 10:14:36;;;;;;;11.85;8.30;;;;;;;23.05;50.17;100176.47;5146823;27;20091;-59
2023/07/05 10:17:08;;;;;;;14.27;7.45;;;;;;;22.99;50.31;100170.81;5023390;28;1345480;-57
2023/07/05 10:19:49;;;;;;;9.75;7.22;;;;;;;23.09;50.62;100177.78;4977000;28;20576;-59
2023/07/05 10:22:33;;;;;;;9.95;7.50;;;;;;;23.15;50.81;100174.38;5001101;28;20085;-59
2023/07/05 10:25:13;;;;;;;8.88;7.60;;;;;;;23.37;50.64;100165.41;5006524;28;20258;-58
2023/07/05 10:27:45;;;;;;;9.00;6.93;;;;;;;23.57;50.10;100175.59;5000179;28;20141;-55
2023/07/05 10:30:16;;;;;;;11.57;6.50;;;;;;;23.65;50.01;100171.00;5017919;28;20042;-57
2023/07/05 10:32:49;;;;;;;9.85;6.45;;;;;;;24.11;49.46;100165.34;5000672;28;20077;-59
2023/07/05 10:35:28;;;;;;;7.97;5.72;;;;;;;24.31;49.17;100153.97;5011859;28;20138;-58
2023/07/05 10:37:55;;;;;;;9.38;5.93;;;;;;;24.41;48.52;100152.69;5002381;28;20153;-55
2023/07/05 10:40:23;;;;;;;10.45;5.45;;;;;;;24.73;48.26;100154.00;5003432;28;20165;-59
2023/07/05 10:42:54;;;;;;;7.72;6.07;;;;;;;24.56;48.43;100144.53;5001524;28;20081;-58
2023/07/05 10:45:22;;;;;;;10.75;5.55;;;;;;;24.71;47.99;100133.69;5002723;28;20467;-59
2023/07/05 10:47:52;;;;;;;10.15;5.47;;;;;;;24.96;47.67;100155.63;5000495;28;20050;-58
2023/07/05 10:50:31;;;;;;;9.05;5.38;;;;;;;25.03;47.65;100159.19;4993811;28;20053;-59
2023/07/05 10:53:19;;;;;;;9.35;5.10;;;;;;;24.64;48.31;100146.25;4990026;28;20972;-58
2023/07/05 10:56:14;;;;;;;6.93;5.13;;;;;;;24.28;49.40;100157.06;4992641;28;20522;-59
2023/07/05 10:58:47;;;;;;;;;;;;;;;24.44;49.38;100135.28;4990539;28;20042;-58
2023/07/05 11:01:33;;;;;;;8.25;4.85;;;;;;;24.30;49.86;100141.53;4994352;28;19932;-60
2023/07/05 11:04:05;;;;;;;10.75;4.75;;;;;;;24.11;50.34;100143.00;4992892;28;20152;-60
2023/07/05 11:06:37;;;;;;;9.45;4.65;;;;;;;23.86;51.11;100145.19;4992379;28;20128;-58
2023/07/05 11:09:04;;;;;;;9.95;4.68;;;;;;;23.71;52.05;100150.59;5011957;28;20230;-58
2023/07/05 11:11:43;;;;;;;6.45;4.90;;;;;;;23.51;52.69;100153.00;4992972;28;20058;-59
2023/07/05 11:14:13;;;;;;;11.82;4.88;;;;;;;23.42;53.20;100157.63;4984341;28;20046;-59
2023/07/05 11:16:42;;;;;;;5.22;3.95;;;;;;;23.49;53.33;100174.66;4989004;28;20076;-60
2023/07/05 11:19:16;;;;;;;6.45;4.30;;;;;;;23.64;53.58;100206.06;4962091;28;20142;-59
2023/07/05 11:21:45;;;;;;;8.32;4.57;;;;;;;23.92;53.60;100176.72;4997503;28;20127;-58
2023/07/05 11:24:31;;;;;;;6.47;3.60;;;;;;;23.92;53.41;100176.72;5005623;28;20115;-62
2023/07/05 11:27:00;;;;;;;7.40;3.28;;;;;;;24.32;52.90;100171.78;5003104;28;20061;-60
2023/07/05 11:29:27;;;;;;;5.00;3.40;;;;;;;24.83;52.05;100183.28;5006378;28;20050;-62
2023/07/05 11:31:58;;;;;;;6.00;3.75;;;;;;;24.89;51.91;100163.66;5003690;28;20042;-61
2023/07/05 11:34:26;;;;;;;6.55;3.33;;;;;;;24.96;51.51;100156.47;5002818;28;20077;-60
2023/07/05 11:37:03;;;;;;;8.43;3.65;;;;;;;25.39;51.52;100153.66;5005961;28;20098;-62
2023/07/05 11:39:37;;;;;;;6.65;3.75;;;;;;;25.75;49.42;100158.84;5015558;28;20071;-60
2023/07/05 11:42:24;;;;;;;9.55;3.60;;;;;;;25.81;49.34;100154.56;5010479;28;20068;-59
2023/07/05 11:44:53;;;;;;;6.03;3.63;;;;;;;25.84;48.84;100174.88;5001907;28;20151;-62
2023/07/05 11:47:24;;;;;;;6.50;3.45;;;;;;;25.77;49.00;100180.25;5016246;28;20466;-61
2023/07/05 11:50:07;;;;;;;5.55;2.70;;;;;;;25.25;49.48;100171.63;5003807;28;20050;-59
2023/07/05 11:52:38;;;;;;;5.15;2.90;;;;;;;25.35;49.56;100151.56;5011978;28;20056;-61
2023/07/05 11:55:11;;;;;;;4.53;3.00;;;;;;;25.36;49.41;100178.34;5026384;28;20514;-59
2023/07/05 11:58:00;;;;;;;8.48;3.20;;;;;;;25.22;49.83;100172.03;5008247;28;20061;-63
2023/07/05 12:00:31;;;;;;;6.43;3.05;;;;;;;25.17;50.19;100171.78;5013082;28;20046;-62
2023/07/05 12:03:05;;;;;;;4.25;2.85;;;;;;;25.11;50.48;100161.78;5011296;28;20778;-62
2023/07/05 12:05:33;;;;;;;10.18;3.15;;;;;;;25.22;50.42;100160.41;5004622;28;20085;-60
2023/07/05 12:08:12;;;;;;;4.65;2.63;;;;;;;25.21;50.30;100158.72;5005127;28;20152;-61
2023/07/05 12:10:51;;;;;;;5.50;3.47;;;;;;;25.15;50.13;100160.38;5018611;28;20049;-61
2023/07/05 12:13:24;;;;;;;5.15;2.78;;;;;;;24.92;50.56;100154.38;4985892;28;20034;-62
2023/07/05 12:15:55;;;;;;;4.65;3.08;;;;;;;25.07;50.28;100179.31;5000577;28;20152;-61
2023/07/05 12:18:23;;;;;;;4.95;2.90;;;;;;;25.28;50.01;100164.19;5019241;28;20069;-60
2023/07/05 12:20:54;;;;;;;4.90;2.97;;;;;;;25.25;49.53;100149.22;5043738;28;20119;-59
2023/07/05 12:23:29;;;;;;;6.18;3.08;;;;;;;25.19;49.85;100148.16;5049312;28;20109;-61
2023/07/05 12:26:01;;;;;;;4.50;2.63;;;;;;;25.44;49.38;100131.50;5027807;28;20045;-60
2023/07/05 12:28:31;;;;;;;6.90;2.50;;;;;;;25.38;48.28;100129.63;5046827;28;20083;-61
2023/07/05 12:31:03;;;;;;;4.32;2.60;;;;;;;25.56;48.61;100148.78;5044372;28;20049;-61
2023/07/05 12:33:35;;;;;;;4.15;2.72;;;;;;;25.58;48.39;100143.19;5044470;28;20056;-61
2023/07/05 12:36:18;;;;;;;4.13;2.40;;;;;;;25.75;47.63;100137.25;5034028;28;20140;-61
2023/07/05 12:38:50;;;;;;;4.95;2.80;;;;;;;25.73;46.99;100133.94;5046795;28;20065;-60
2023/07/05 12:41:23;;;;;;;4.32;2.10;;;;;;;25.87;47.13;100152.91;5045125;28;20133;-61
2023/07/05 12:44:00;;;;;;;4.40;2.10;;;;;;;25.38;47.28;100135.84;5042603;28;20097;-62
2023/07/05 12:46:29;;;;;;;5.65;2.47;;;;;;;25.34;47.63;100147.22;5043610;28;20049;-61
2023/07/05 12:49:20;;;;;;;6.15;2.17;;;;;;;25.17;47.57;100130.53;5042000;28;20395;-60
2023/07/05 12:51:59;;;;;;;6.30;2.88;;;;;;;25.21;48.49;100115.63;5043788;28;20053;-61
2023/07/05 12:54:26;;;;;;;5.18;2.55;;;;;;;25.47;47.52;100121.16;5031778;28;20051;-63
2023/07/05 12:56:54;;;;;;;7.28;2.55;;;;;;;25.71;46.93;100137.88;5044865;28;20036;-60
2023/07/05 12:59:37;;;;;;;4.07;2.00;;;;;;;25.81;46.73;100115.97;5041399;28;20051;-62
2023/07/05 13:02:28;;;;;;;3.30;2.15;;;;;;;25.79;46.81;100116.16;5040901;28;20041;-61
2023/07/05 13:04:59;;;;;;;4.72;2.08;;;;;;;25.87;46.99;100121.38;5031538;28;20098;-61
2023/07/05 13:07:48;;;;;;;10.77;2.38;;;;;;;26.00;47.11;100136.78;5030434;28;20037;-61
2023/07/05 13:11:11;;;;;;;5.40;2.17;;;;;;;26.16;45.92;100116.66;5048062;28;20060;-59
2023/07/05 13:14:38;;;;;;;8.65;1.63;;;;;;;26.00;46.51;100161.06;5029558;28;20081;-62
2023/07/05 13:18:12;;;;;;;6.30;2.15;;;;;;;25.35;46.95;100121.94;5033315;28;20055;-60
2023/07/05 13:20:41;;;;;;;3.30;1.92;;;;;;;25.18;47.23;100102.59;5071992;28;20048;-61
2023/07/05 13:23:11;;;;;;;4.50;2.00;;;;;;;24.96;47.80;100166.41;5067112;28;20101;-62
2023/07/05 13:25:45;;;;;;;2.65;1.75;;;;;;;24.82;48.09;100159.25;5081042;28;20120;-60
2023/07/05 13:28:24;;;;;;;4.18;1.63;;;;;;;24.39;48.87;100114.34;5068830;28;20048;-64
2023/07/05 13:30:53;;;;;;;5.47;1.92;;;;;;;24.12;49.60;100132.06;5078264;28;20131;-55
2023/07/05 13:33:22;;;;;;;3.60;1.90;;;;;;;23.89;50.53;100159.09;5078843;28;20131;-53
2023/07/05 13:35:50;;;;;;;3.85;1.88;;;;;;;23.66;53.23;100147.63;5055059;28;20064;-64
2023/07/05 13:38:18;;;;;;;4.35;2.25;;;;;;;23.27;54.54;100175.56;5057331;28;20170;-66
2023/07/05 13:40:54;;;;;;;6.22;2.92;;;;;;;22.88;56.64;100155.13;5078601;28;20122;-58
2023/07/05 13:43:22;;;;;;;6.88;3.20;;;;;;;23.19;56.60;100152.34;5072093;28;20193;-60
2023/07/05 13:45:50;;;;;;;7.13;3.28;;;;;;;22.92;58.14;100166.34;5072428;28;20155;-65
2023/07/05 13:48:20;;;;;;;4.93;2.40;;;;;;;23.16;56.91;100176.03;5067751;28;20141;-60
2023/07/05 13:50:47;;;;;;;4.63;2.55;;;;;;;22.72;57.59;100171.34;5066130;28;20044;-61
2023/07/05 13:53:23;;;;;;;5.18;2.95;;;;;;;22.75;57.69;100161.09;5056081;28;20067;-60
2023/07/05 13:55:52;;;;;;;7.38;3.13;;;;;;;22.88;57.84;100159.66;5071344;28;20196;-59
2023/07/05 13:58:21;;;;;;;6.20;2.40;;;;;;;23.54;56.17;100159.84;5064954;28;20194;-61
2023/07/05 14:00:48;;;;;;;4.25;2.85;;;;;;;24.04;54.04;100156.38;5071994;28;20155;-58
2023/07/05 14:03:17;;;;;;;6.95;3.08;;;;;;;24.43;52.27;100156.00;5080156;28;20059;-62
2023/07/05 14:05:44;;;;;;;5.50;2.90;;;;;;;24.88;49.91;100156.59;5074820;28;20050;-58
2023/07/05 14:08:18;;;;;;;4.05;2.65;;;;;;;25.04;48.25;100160.03;5078684;28;20039;-59
2023/07/05 14:10:47;;;;;;;4.50;3.15;;;;;;;24.93;49.80;100161.41;5077314;28;20080;-59
2023/07/05 14:13:16;;;;;;;4.03;3.08;;;;;;;25.33;47.94;100162.56;5065752;28;20066;-60